Time;durP1;ratioP1;P1;durP2;ratioP2;P2;SDS_P1;SDS_P2;PMS_P1;PMS_P2;Temp;Humidity;BMP_temperature;BMP_pressure;BME280_temperature;BME280_humidity;BME280_pressure;Samples;Min_cycle;Max_cycle;Signal;HPM_P1;HPM_P2
2022/09/10 00:01:58;;;;;;;11.25;3.85;;;;;;;21.80;77.28;97811.09;4487009;31;20368;-78
2022/09/10 00:04:26;;;;;;;7.50;3.53;;;;;;;22.36;74.30;97811.13;4486720;31;20088;-78
2022/09/10 00:06:54;;;;;;;7.65;3.85;;;;;;;22.07;74.79;97805.97;4487120;32;20079;-78
2022/09/10 00:09:21;;;;;;;9.18;3.62;;;;;;;23.17;70.31;97799.84;4487070;31;20111;-78
2022/09/10 00:11:48;;;;;;;9.15;3.45;;;;;;;22.73;71.42;97797.06;4486548;31;20235;-78
2022/09/10 00:14:21;;;;;;;8.05;3.75;;;;;;;22.97;70.31;97804.44;4485606;32;20133;-78
2022/09/10 00:16:48;;;;;;;10.63;4.15;;;;;;;23.83;67.01;97805.53;4486589;31;20420;-78
2022/09/10 00:19:15;;;;;;;7.90;3.78;;;;;;;23.46;67.95;97805.69;4486585;31;20488;-78
2022/09/10 00:21:43;;;;;;;9.63;4.80;;;;;;;23.66;66.95;97807.22;4485632;32;20093;-78
2022/09/10 00:24:11;;;;;;;10.15;5.32;;;;;;;23.02;69.02;97803.00;4486749;31;20092;-78
2022/09/10 00:26:38;;;;;;;10.25;5.47;;;;;;;21.78;74.54;97800.75;4486592;31;20088;-78
2022/09/10 00:29:07;;;;;;;12.52;5.68;;;;;;;22.16;73.57;97791.97;4486763;31;20132;-78
2022/09/10 00:31:35;;;;;;;13.65;6.55;;;;;;;21.59;76.24;97795.56;4486688;31;20085;-77
2022/09/10 00:34:03;;;;;;;11.30;6.50;;;;;;;21.94;74.47;97800.16;4486335;31;20494;-78
2022/09/10 00:36:32;;;;;;;13.88;6.85;;;;;;;21.92;74.49;97804.75;4486645;31;20130;-78
2022/09/10 00:39:02;;;;;;;13.57;7.53;;;;;;;22.86;70.31;97804.63;4486314;31;20344;-77
2022/09/10 00:41:29;;;;;;;13.45;8.10;;;;;;;22.78;70.91;97800.09;4486522;31;20093;-77
2022/09/10 00:44:01;;;;;;;13.55;8.27;;;;;;;21.58;76.37;97799.13;4486475;31;20124;-77
2022/09/10 00:46:43;;;;;;;13.60;8.65;;;;;;;20.06;82.71;97797.69;4486224;31;20084;-77
2022/09/10 00:49:20;;;;;;;15.68;8.57;;;;;;;21.41;77.90;97798.03;4486599;31;20571;-77
2022/09/10 00:51:49;;;;;;;13.18;8.13;;;;;;;21.90;74.95;97798.78;4485455;32;20101;-77
2022/09/10 00:54:17;;;;;;;14.20;7.78;;;;;;;21.52;75.73;97800.53;4486010;31;20093;-77
2022/09/10 00:56:45;;;;;;;11.80;7.15;;;;;;;20.95;78.70;97796.91;4486346;31;20077;-77
2022/09/10 00:59:15;;;;;;;12.82;7.80;;;;;;;21.12;78.26;97792.75;4486311;31;20359;-77
2022/09/10 01:01:42;;;;;;;13.02;7.75;;;;;;;21.16;78.01;97802.03;4485978;31;20111;-77
2022/09/10 01:04:09;;;;;;;13.02;7.10;;;;;;;20.32;80.53;97808.59;4486115;31;20510;-77
2022/09/10 01:06:38;;;;;;;13.05;8.15;;;;;;;20.25;81.55;97796.97;4485089;32;20080;-77
2022/09/10 01:09:05;;;;;;;12.23;7.50;;;;;;;19.41;85.50;97798.81;4484760;32;20104;-77
2022/09/10 01:12:02;;;;;;;14.18;8.35;;;;;;;19.15;86.50;97798.34;4486175;31;20111;-77
2022/09/10 01:14:48;;;;;;;13.77;8.38;;;;;;;19.23;86.80;97803.75;4485808;31;20084;-77
2022/09/10 01:17:44;;;;;;;13.75;8.38;;;;;;;19.36;86.81;97801.81;4485894;31;20503;-77
2022/09/10 01:20:23;;;;;;;15.07;8.52;;;;;;;19.63;85.10;97785.63;4485961;31;20101;-77
2022/09/10 01:23:16;;;;;;;14.38;8.90;;;;;;;19.11;87.91;97775.97;4484656;32;20126;-78
2022/09/10 01:25:52;;;;;;;14.20;8.48;;;;;;;19.14;87.07;97765.25;4487601;32;20241;-77
2022/09/10 01:28:37;;;;;;;12.85;7.80;;;;;;;19.83;84.08;97783.94;4488109;31;20092;-78
2022/09/10 01:31:21;;;;;;;13.02;7.97;;;;;;;19.27;85.28;97795.53;4488377;31;20119;-77
2022/09/10 01:33:56;;;;;;;11.95;7.72;;;;;;;20.18;81.15;97788.78;4487180;32;20172;-77
2022/09/10 01:36:24;;;;;;;12.00;7.50;;;;;;;20.03;81.97;97782.25;4486875;32;20092;-77
2022/09/10 01:38:52;;;;;;;11.27;6.80;;;;;;;20.23;81.37;97787.44;4488303;31;20149;-77
2022/09/10 01:41:22;;;;;;;11.93;7.40;;;;;;;20.68;78.29;97773.94;4488121;31;20420;-77
2022/09/10 01:43:49;;;;;;;10.45;6.62;;;;;;;20.61;78.02;97767.56;4487889;31;20157;-78
2022/09/10 01:46:43;;;;;;;12.30;6.47;;;;;;;19.70;81.73;97765.84;4488199;31;20084;-78
2022/09/10 01:49:24;;;;;;;9.77;5.75;;;;;;;21.54;74.41;97772.31;4487900;31;20080;-78
2022/09/10 01:52:14;;;;;;;10.32;5.50;;;;;;;22.27;69.90;97780.44;4486974;32;20478;-78
2022/09/10 01:54:46;;;;;;;9.10;4.80;;;;;;;22.31;69.00;97788.84;4488079;31;20119;-78
2022/09/10 01:57:26;;;;;;;10.02;4.87;;;;;;;22.50;68.01;97784.34;4486654;32;20092;-77
2022/09/10 02:00:08;;;;;;;7.68;4.00;;;;;;;22.02;69.58;97776.66;4488051;31;20081;-77
2022/09/10 02:02:40;;;;;;;7.70;4.05;;;;;;;20.72;74.17;97777.13;4487081;32;20112;-77
2022/09/10 02:05:08;;;;;;;8.27;3.95;;;;;;;21.52;72.11;97760.31;4486627;32;20104;-77
2022/09/10 02:07:36;;;;;;;6.65;3.37;;;;;;;21.47;70.82;97759.91;4487090;32;20084;-77
2022/09/10 02:10:06;;;;;;;6.53;3.30;;;;;;;20.98;73.39;97765.16;4488044;31;20111;-77
2022/09/10 02:12:33;;;;;;;9.30;3.55;;;;;;;20.99;73.18;97765.97;4488218;31;20364;-77
2022/09/10 02:15:01;;;;;;;8.88;3.67;;;;;;;21.21;72.04;97772.75;4486731;32;20108;-77
2022/09/10 02:17:32;;;;;;;8.30;3.67;;;;;;;21.92;68.81;97776.69;4487490;31;20533;-78
2022/09/10 02:20:01;;;;;;;6.28;3.53;;;;;;;22.22;67.66;97786.16;4486700;31;20080;-77
2022/09/10 02:22:30;;;;;;;6.80;3.40;;;;;;;22.03;68.36;97773.03;4486822;32;20092;-77
2022/09/10 02:24:57;;;;;;;7.53;3.67;;;;;;;22.57;65.76;97768.81;4486317;32;20123;-78
2022/09/10 02:27:24;;;;;;;8.40;3.90;;;;;;;21.96;68.36;97766.69;4488006;31;20143;-77
2022/09/10 02:29:51;;;;;;;8.98;3.62;;;;;;;21.97;68.23;97765.72;4487914;31;20081;-77
2022/09/10 02:32:18;;;;;;;7.72;3.90;;;;;;;21.49;70.33;97753.56;4487431;31;20123;-77
2022/09/10 02:34:45;;;;;;;6.95;3.70;;;;;;;21.40;69.96;97757.03;4487742;31;20384;-78
2022/09/10 02:37:11;;;;;;;7.20;3.60;;;;;;;20.41;74.31;97752.75;4487847;31;20080;-77
2022/09/10 02:39:38;;;;;;;6.82;3.65;;;;;;;20.92;72.66;97744.72;4487334;31;20084;-78
2022/09/10 02:42:06;;;;;;;7.10;3.47;;;;;;;21.19;71.78;97744.03;4487764;31;20446;-77
2022/09/10 02:44:33;;;;;;;6.53;3.15;;;;;;;21.51;69.61;97742.91;4487735;31;20114;-77
2022/09/10 02:47:00;;;;;;;7.05;3.20;;;;;;;20.86;71.89;97744.44;4487563;31;20088;-78
2022/09/10 02:49:28;;;;;;;6.62;3.20;;;;;;;20.24;74.43;97741.12;4487794;31;20076;-77
2022/09/10 02:51:54;;;;;;;6.43;3.15;;;;;;;20.77;72.41;97761.81;4487706;31;20088;-77
2022/09/10 02:54:21;;;;;;;6.75;2.90;;;;;;;19.85;76.28;97761.91;4486063;32;20629;-77
2022/09/10 02:56:48;;;;;;;5.97;3.00;;;;;;;19.61;77.34;97759.59;4487799;31;20141;-77
2022/09/10 02:59:16;;;;;;;4.37;2.53;;;;;;;20.04;75.20;97761.19;4486230;32;20085;-77
2022/09/10 03:01:43;;;;;;;4.05;2.17;;;;;;;19.50;77.38;97745.72;4487512;31;20089;-77
2022/09/10 03:04:11;;;;;;;6.12;2.40;;;;;;;19.28;77.71;97746.66;4486445;32;20168;-77
2022/09/10 03:06:38;;;;;;;5.35;2.25;;;;;;;18.66;82.40;97750.00;4487385;31;20099;-77
2022/09/10 03:09:05;;;;;;;4.45;1.98;;;;;;;18.66;82.07;97750.84;4487713;31;20085;-77
2022/09/10 03:11:33;;;;;;;4.78;2.22;;;;;;;18.86;80.66;97744.00;4487597;31;20111;-77
2022/09/10 03:14:00;;;;;;;4.18;2.10;;;;;;;17.68;86.24;97746.34;4487140;31;20106;-77
2022/09/10 03:16:27;;;;;;;5.55;2.28;;;;;;;18.62;81.24;97741.56;4487597;31;20080;-77
2022/09/10 03:18:54;;;;;;;6.05;2.17;;;;;;;18.72;81.20;97737.28;4487550;32;20159;-77
2022/09/10 03:21:23;;;;;;;3.92;2.00;;;;;;;18.66;81.71;97742.16;4487050;31;20097;-77
2022/09/10 03:23:52;;;;;;;4.35;2.08;;;;;;;18.56;81.94;97743.81;4487484;31;20140;-77
2022/09/10 03:26:19;;;;;;;6.35;2.00;;;;;;;18.84;79.76;97738.06;4473568;32;20102;-77
2022/09/10 03:28:47;;;;;;;3.78;1.85;;;;;;;18.78;80.53;97730.72;4485915;32;20072;-77
2022/09/10 03:31:14;;;;;;;3.50;1.80;;;;;;;18.47;81.44;97735.75;4487464;31;20112;-77
2022/09/10 03:33:41;;;;;;;3.75;1.80;;;;;;;19.40;77.29;97736.97;4486195;32;20112;-77
2022/09/10 03:36:08;;;;;;;3.08;1.67;;;;;;;19.42;77.09;97733.25;4487236;31;20076;-77
2022/09/10 03:38:35;;;;;;;3.47;1.50;;;;;;;18.73;79.85;97728.50;4486269;32;20099;-77
2022/09/10 03:41:03;;;;;;;3.60;1.52;;;;;;;18.85;79.73;97729.28;4487193;32;20492;-77
2022/09/10 03:43:30;;;;;;;4.25;1.60;;;;;;;18.77;80.32;97734.28;4485767;32;20462;-77
2022/09/10 03:45:56;;;;;;;4.22;1.60;;;;;;;19.53;76.45;97737.59;4487397;31;20088;-77
2022/09/10 03:48:23;;;;;;;2.37;1.40;;;;;;;18.49;81.19;97735.63;4485290;32;20449;-77
2022/09/10 03:50:50;;;;;;;2.67;1.42;;;;;;;18.63;80.37;97732.75;4487269;31;20092;-77
2022/09/10 03:53:18;;;;;;;2.42;1.30;;;;;;;19.66;76.09;97730.37;4487319;31;20118;-77
2022/09/10 03:55:47;;;;;;;2.20;1.30;;;;;;;18.19;83.17;97729.28;4486777;31;20153;-77
2022/09/10 03:58:15;;;;;;;2.25;1.48;;;;;;;19.27;78.68;97732.75;4487403;31;20095;-77
2022/09/10 04:00:41;;;;;;;2.78;1.30;;;;;;;19.91;75.48;97735.22;4485911;31;20104;-77
2022/09/10 04:03:09;;;;;;;5.28;1.45;;;;;;;19.10;78.87;97730.69;4486902;31;20120;-77
2022/09/10 04:05:42;;;;;;;2.00;1.20;;;;;;;18.84;80.13;97725.00;4486967;31;20106;-77
2022/09/10 04:08:10;;;;;;;3.20;1.35;;;;;;;19.38;77.59;97718.78;4487173;31;20081;-77
2022/09/10 04:10:38;;;;;;;2.95;1.20;;;;;;;18.39;82.18;97726.88;4486607;32;20216;-77
2022/09/10 04:13:05;;;;;;;3.08;1.42;;;;;;;19.12;79.50;97743.66;4487023;32;20502;-77
2022/09/10 04:15:33;;;;;;;6.20;1.40;;;;;;;19.50;78.09;97743.09;4486975;31;20462;-78
2022/09/10 04:18:00;;;;;;;3.33;1.40;;;;;;;19.80;75.83;97755.41;4486455;31;20077;-77
2022/09/10 04:20:27;;;;;;;2.80;1.20;;;;;;;19.50;76.79;97748.31;4486744;31;20105;-78
2022/09/10 04:22:56;;;;;;;3.85;1.58;;;;;;;19.51;77.36;97744.75;4486887;31;20446;-78
2022/09/10 04:25:22;;;;;;;2.47;1.12;;;;;;;19.36;77.78;97745.09;4486446;31;20092;-79
2022/09/10 04:27:50;;;;;;;3.72;1.50;;;;;;;19.31;77.42;97742.00;4486936;31;20480;-78
2022/09/10 04:30:18;;;;;;;3.97;1.40;;;;;;;19.27;78.00;97753.69;4486712;31;20103;-78
2022/09/10 04:32:45;;;;;;;3.03;1.33;;;;;;;18.64;81.37;97751.87;4486520;31;20107;-78
2022/09/10 04:35:14;;;;;;;3.67;1.62;;;;;;;19.99;75.10;97752.91;4486625;31;20386;-78
2022/09/10 04:37:41;;;;;;;2.55;1.30;;;;;;;18.94;80.82;97751.22;4486321;31;20081;-78
2022/09/10 04:40:09;;;;;;;3.03;1.20;;;;;;;19.65;76.91;97752.28;4486550;32;20116;-78
2022/09/10 04:42:37;;;;;;;2.85;1.50;;;;;;;18.93;80.44;97746.97;4486615;31;20120;-78
2022/09/10 04:45:04;;;;;;;2.05;1.20;;;;;;;19.02;79.45;97748.78;4486107;31;20093;-78
2022/09/10 04:47:32;;;;;;;3.75;1.35;;;;;;;19.36;78.30;97747.69;4485418;32;20437;-78
2022/09/10 04:50:00;;;;;;;2.65;1.40;;;;;;;19.23;78.70;97743.59;4486409;31;20427;-78
2022/09/10 04:52:27;;;;;;;3.30;1.67;;;;;;;19.77;76.24;97756.47;4486163;31;20092;-78
2022/09/10 04:54:54;;;;;;;2.87;1.40;;;;;;;19.52;77.04;97751.63;4486294;31;20558;-78
2022/09/10 04:57:22;;;;;;;3.00;1.42;;;;;;;20.60;72.57;97759.84;4486476;32;20077;-78
2022/09/10 04:59:49;;;;;;;4.20;1.40;;;;;;;19.79;75.51;97759.00;4486863;31;20445;-78
2022/09/10 05:02:16;;;;;;;3.30;1.40;;;;;;;19.51;77.90;97758.66;4488376;31;20421;-78
2022/09/10 05:04:43;;;;;;;3.72;1.30;;;;;;;19.70;76.66;97763.22;4488363;31;20088;-78
2022/09/10 05:07:10;;;;;;;2.50;1.40;;;;;;;20.15;74.69;97761.09;4488276;31;20498;-78
2022/09/10 05:09:37;;;;;;;2.50;1.50;;;;;;;19.83;75.93;97765.63;4488466;31;20092;-78
2022/09/10 05:12:04;;;;;;;4.40;1.40;;;;;;;20.88;71.13;97761.69;4488503;31;20352;-78
2022/09/10 05:14:32;;;;;;;4.30;1.40;;;;;;;20.61;72.37;97770.19;4487997;31;20107;-78
2022/09/10 05:16:59;;;;;;;2.83;1.48;;;;;;;20.28;74.15;97773.94;4488259;31;20077;-78
2022/09/10 05:19:26;;;;;;;7.40;1.70;;;;;;;21.50;68.95;97768.34;4488442;31;20107;-78
2022/09/10 05:21:52;;;;;;;3.72;1.67;;;;;;;20.98;70.81;97780.06;4487947;31;20099;-78
2022/09/10 05:24:20;;;;;;;4.32;1.70;;;;;;;21.22;69.29;97771.78;4488281;31;20234;-78
2022/09/10 05:26:47;;;;;;;3.47;1.80;;;;;;;21.78;67.65;97776.28;4486974;32;20107;-78
2022/09/10 05:29:15;;;;;;;5.65;1.70;;;;;;;21.64;67.61;97772.31;4488429;31;20559;-78
2022/09/10 05:31:43;;;;;;;2.97;1.40;;;;;;;20.78;71.19;97777.41;4488213;31;20088;-78
2022/09/10 05:34:10;;;;;;;6.97;1.77;;;;;;;21.49;68.43;97768.50;4487893;31;20092;-78
2022/09/10 05:36:37;;;;;;;3.90;1.40;;;;;;;22.23;64.94;97774.66;4488365;32;20137;-78
2022/09/10 05:39:04;;;;;;;2.67;1.40;;;;;;;21.11;68.81;97764.06;4488276;31;20093;-78
2022/09/10 05:41:31;;;;;;;4.03;1.40;;;;;;;21.27;68.39;97769.63;4487739;31;20122;-78
2022/09/10 05:43:58;;;;;;;3.53;1.65;;;;;;;22.09;65.43;97769.03;4474050;32;20088;-78
2022/09/10 05:46:27;;;;;;;4.70;1.60;;;;;;;20.90;69.37;97766.81;4488312;31;20081;-78
2022/09/10 05:48:54;;;;;;;4.37;1.80;;;;;;;20.46;71.65;97772.38;4486730;32;20409;-78
2022/09/10 05:51:21;;;;;;;4.20;1.50;;;;;;;20.49;72.14;97769.50;4488167;31;20096;-78
2022/09/10 05:53:48;;;;;;;5.37;1.80;;;;;;;21.20;69.80;97771.09;4488267;31;20085;-78
2022/09/10 05:56:15;;;;;;;6.53;1.77;;;;;;;21.26;70.42;97778.44;4487851;31;20076;-78
2022/09/10 05:58:44;;;;;;;3.25;1.50;;;;;;;20.83;71.33;97782.25;4488157;31;20088;-78
2022/09/10 06:01:11;;;;;;;6.65;1.90;;;;;;;21.14;70.55;97777.72;4487938;31;20110;-78
2022/09/10 06:03:39;;;;;;;3.70;1.80;;;;;;;20.43;74.05;97774.44;4486609;32;20164;-78
2022/09/10 06:06:06;;;;;;;4.00;1.50;;;;;;;21.05;71.07;97787.25;4488052;31;20084;-78
2022/09/10 06:08:34;;;;;;;4.15;1.50;;;;;;;21.39;68.75;97779.00;4488086;31;20702;-78
2022/09/10 06:11:06;;;;;;;5.43;1.60;;;;;;;21.52;68.15;97790.03;4487360;31;20563;-78
2022/09/10 06:13:34;;;;;;;2.85;1.50;;;;;;;21.31;69.12;97774.44;4488094;31;20099;-78
2022/09/10 06:16:01;;;;;;;7.68;1.87;;;;;;;20.62;71.26;97779.72;4487592;31;20720;-78
2022/09/10 06:18:28;;;;;;;4.07;1.77;;;;;;;21.04;70.63;97782.94;4487825;31;20130;-78
2022/09/10 06:21:03;;;;;;;4.37;1.80;;;;;;;20.49;72.49;97781.75;4487880;31;20157;-78
2022/09/10 06:23:30;;;;;;;3.62;1.62;;;;;;;21.17;69.54;97792.38;4487752;31;20103;-78
2022/09/10 06:26:03;;;;;;;4.12;1.90;;;;;;;20.80;71.32;97796.47;4487752;31;20352;-78
2022/09/10 06:28:31;;;;;;;5.10;1.80;;;;;;;20.83;70.91;97810.25;4486773;32;20119;-78
2022/09/10 06:30:59;;;;;;;3.78;1.90;;;;;;;21.04;69.94;97818.84;4487512;31;20118;-78
2022/09/10 06:33:26;;;;;;;4.43;1.95;;;;;;;20.18;74.03;97820.22;4487805;31;20149;-78
2022/09/10 06:35:57;;;;;;;4.57;1.98;;;;;;;20.24;73.65;97817.09;4487717;31;20111;-78
2022/09/10 06:38:28;;;;;;;3.75;1.73;;;;;;;21.14;70.40;97824.09;4487696;31;20096;-78
2022/09/10 06:40:59;;;;;;;3.95;1.90;;;;;;;20.59;72.83;97821.09;4487763;31;20104;-78
2022/09/10 06:43:27;;;;;;;4.45;1.80;;;;;;;21.61;69.02;97825.94;4487901;31;20470;-79
2022/09/10 06:45:54;;;;;;;5.93;1.85;;;;;;;21.40;69.93;97821.81;4486237;32;20081;-78
2022/09/10 06:48:26;;;;;;;5.35;2.00;;;;;;;21.13;71.18;97830.31;4487878;31;20109;-78
2022/09/10 06:51:13;;;;;;;3.87;1.70;;;;;;;21.29;70.25;97823.59;4487336;31;20107;-78
2022/09/10 06:53:41;;;;;;;7.15;2.00;;;;;;;21.48;69.74;97817.53;4487711;31;20088;-78
2022/09/10 06:56:12;;;;;;;4.53;1.87;;;;;;;21.48;68.73;97814.91;4487864;31;20145;-78
2022/09/10 06:58:39;;;;;;;4.55;2.00;;;;;;;21.22;70.03;97824.25;4487422;31;20138;-78
2022/09/10 07:01:16;;;;;;;3.75;1.83;;;;;;;20.94;70.82;97826.69;4486392;32;20108;-78
2022/09/10 07:03:43;;;;;;;5.28;1.87;;;;;;;20.25;72.38;97829.22;4487705;31;20144;-78
2022/09/10 07:06:16;;;;;;;3.45;1.55;;;;;;;20.46;71.14;97832.66;4487408;31;20076;-78
2022/09/10 07:08:43;;;;;;;4.47;2.00;;;;;;;20.19;71.36;97824.50;4486507;32;20117;-78
2022/09/10 07:11:12;;;;;;;4.97;1.80;;;;;;;21.22;68.08;97830.31;4487516;31;20093;-78
2022/09/10 07:13:40;;;;;;;4.20;1.60;;;;;;;21.47;67.26;97831.59;4486269;32;20130;-78
2022/09/10 07:16:06;;;;;;;2.87;1.52;;;;;;;20.75;67.96;97830.13;4487563;31;20192;-78
2022/09/10 07:18:34;;;;;;;5.95;1.85;;;;;;;20.99;68.23;97837.63;4487426;31;20482;-78
2022/09/10 07:21:08;;;;;;;4.35;1.77;;;;;;;21.83;64.09;97840.56;4485904;31;20084;-78
2022/09/10 07:23:35;;;;;;;4.82;1.73;;;;;;;21.09;66.91;97848.12;4485503;32;20100;-78
2022/09/10 07:26:06;;;;;;;3.62;1.62;;;;;;;22.06;63.63;97850.72;4487215;31;20103;-78
2022/09/10 07:28:35;;;;;;;5.05;1.87;;;;;;;22.67;62.30;97853.72;4487588;32;20115;-78
2022/09/10 07:31:12;;;;;;;5.90;1.90;;;;;;;22.71;60.06;97846.38;4487399;31;20101;-78
2022/09/10 07:33:39;;;;;;;5.00;1.80;;;;;;;22.48;60.76;97844.13;4487089;31;20104;-78
2022/09/10 07:36:07;;;;;;;4.22;1.70;;;;;;;22.23;61.36;97832.47;4487607;32;20081;-78
2022/09/10 07:38:34;;;;;;;3.47;2.00;;;;;;;21.03;66.41;97840.78;4487354;31;20382;-78
2022/09/10 07:41:01;;;;;;;4.87;1.80;;;;;;;21.75;63.39;97842.22;4486847;31;20097;-78
2022/09/10 07:43:28;;;;;;;5.65;1.83;;;;;;;21.36;64.29;97837.81;4487416;31;20084;-78
2022/09/10 07:45:55;;;;;;;4.80;1.75;;;;;;;20.80;66.63;97842.81;4487132;31;20363;-78
2022/09/10 07:48:27;;;;;;;5.87;1.98;;;;;;;20.93;66.53;97847.81;4487024;31;20115;-78
2022/09/10 07:51:01;;;;;;;5.60;1.75;;;;;;;20.89;67.30;97856.94;4487249;31;20118;-78
2022/09/10 07:53:28;;;;;;;5.95;1.90;;;;;;;21.37;64.86;97859.63;4487366;31;20088;-78
2022/09/10 07:56:02;;;;;;;3.08;1.55;;;;;;;23.30;59.79;97856.41;4486932;31;20085;-78
2022/09/10 07:58:30;;;;;;;5.53;1.73;;;;;;;22.35;61.53;97848.06;4487247;32;20135;-78
2022/09/10 08:00:58;;;;;;;4.97;2.00;;;;;;;22.99;59.38;97852.47;4486765;31;20092;-77
2022/09/10 08:03:26;;;;;;;3.97;1.90;;;;;;;22.31;61.80;97846.66;4487173;31;20092;-78
2022/09/10 08:05:53;;;;;;;6.18;2.55;;;;;;;22.75;61.22;97852.97;4486903;31;20149;-78
2022/09/10 08:08:21;;;;;;;5.60;2.20;;;;;;;22.11;63.73;97845.91;4486937;31;20115;-78
2022/09/10 08:10:48;;;;;;;5.32;2.30;;;;;;;22.76;61.26;97852.84;4487082;31;20096;-78
2022/09/10 08:13:15;;;;;;;5.35;2.08;;;;;;;23.12;59.96;97866.09;4487045;31;20134;-78
2022/09/10 08:15:43;;;;;;;8.32;2.35;;;;;;;23.40;58.23;97858.16;4485439;32;20084;-78
2022/09/10 08:18:12;;;;;;;9.80;2.50;;;;;;;22.45;61.56;97862.81;4486861;31;20453;-78
2022/09/10 08:20:39;;;;;;;5.85;1.98;;;;;;;23.25;59.75;97866.56;4486898;32;20092;-78
2022/09/10 08:23:07;;;;;;;6.03;2.40;;;;;;;23.40;60.10;97874.78;4486466;31;20080;-78
2022/09/10 08:25:34;;;;;;;3.62;1.62;;;;;;;24.39;56.43;97875.41;4486821;31;20080;-78
2022/09/10 08:28:01;;;;;;;4.47;2.00;;;;;;;24.74;54.70;97873.59;4485785;32;20108;-78
2022/09/10 08:30:30;;;;;;;5.97;2.20;;;;;;;24.44;54.89;97882.84;4486454;31;20169;-78
2022/09/10 08:32:57;;;;;;;4.22;1.90;;;;;;;24.51;53.79;97891.78;4486835;31;20096;-78
2022/09/10 08:35:25;;;;;;;5.62;2.03;;;;;;;24.02;56.36;97901.16;4488569;31;20149;-78
2022/09/10 08:37:52;;;;;;;6.30;2.20;;;;;;;24.35;54.64;97896.94;4488313;32;20111;-78
2022/09/10 08:40:19;;;;;;;4.50;1.80;;;;;;;24.36;55.31;97904.72;4488654;31;20103;-78
2022/09/10 08:42:48;;;;;;;7.40;2.60;;;;;;;23.74;57.39;97897.81;4488558;32;20549;-79
2022/09/10 08:45:27;;;;;;;15.10;4.72;;;;;;;24.61;53.56;97895.13;4487106;32;20068;-79
2022/09/10 08:48:06;;;;;;;18.73;6.00;;;;;;;24.72;55.28;97889.59;4488957;31;20097;-79
2022/09/10 08:50:53;;;;;;;8.20;3.15;;;;;;;25.20;52.30;97892.56;4487091;31;20109;-78
2022/09/10 08:53:42;;;;;;;4.90;1.95;;;;;;;25.60;51.00;97887.34;4487425;32;20370;-78
2022/09/10 08:56:18;;;;;;;11.38;4.32;;;;;;;25.26;53.14;97887.47;4487460;32;20435;-78
2022/09/10 08:58:53;;;;;;;8.40;2.80;;;;;;;25.31;50.66;97894.94;4487059;32;20096;-78
2022/09/10 09:01:29;;;;;;;9.82;2.08;;;;;;;25.24;50.61;97886.81;4487260;31;20113;-78
2022/09/10 09:03:56;;;;;;;4.72;1.90;;;;;;;23.94;52.20;97883.50;4488499;31;20404;-78
2022/09/10 09:06:43;;;;;;;6.72;1.85;;;;;;;24.41;52.13;97888.44;4487052;32;20465;-78
2022/09/10 09:09:11;;;;;;;3.97;1.60;;;;;;;24.02;54.34;97887.97;4488585;31;20107;-78
2022/09/10 09:12:07;;;;;;;4.53;1.62;;;;;;;23.92;53.46;97891.53;4488199;31;20100;-78
2022/09/10 09:14:44;;;;;;;2.83;1.58;;;;;;;24.27;52.21;97887.19;4488375;32;20114;-78
2022/09/10 09:17:37;;;;;;;3.22;1.60;;;;;;;25.27;50.88;97893.59;4488175;31;20072;-78
2022/09/10 09:20:21;;;;;;;5.18;2.05;;;;;;;25.62;50.23;97900.41;4487984;31;20088;-78
2022/09/10 09:22:54;;;;;;;4.90;2.30;;;;;;;26.62;46.20;97885.16;4488368;31;20111;-78
2022/09/10 09:25:26;;;;;;;4.90;1.73;;;;;;;26.66;45.79;97892.56;4486714;32;20127;-78
2022/09/10 09:27:55;;;;;;;3.33;1.50;;;;;;;26.69;45.51;97901.97;4487237;32;20107;-78
2022/09/10 09:30:28;;;;;;;6.15;1.75;;;;;;;26.63;45.23;97900.84;4488279;31;20101;-78
2022/09/10 09:33:00;;;;;;;4.12;1.52;;;;;;;27.44;43.04;97901.50;4486903;32;20123;-78
2022/09/10 09:35:42;;;;;;;8.27;3.67;;;;;;;26.98;43.48;97899.56;4488259;31;20107;-78
2022/09/10 09:38:09;;;;;;;6.10;2.25;;;;;;;27.82;42.46;97886.50;4488358;31;20103;-78
2022/09/10 09:40:47;;;;;;;5.22;2.12;;;;;;;27.12;43.11;97890.09;4487921;31;20119;-78
2022/09/10 09:43:37;;;;;;;3.37;1.52;;;;;;;26.72;44.84;97885.78;4488099;32;20097;-78
2022/09/10 09:46:12;;;;;;;2.47;1.40;;;;;;;25.86;45.75;97874.03;4486527;32;20097;-78
2022/09/10 09:48:40;;;;;;;5.37;1.70;;;;;;;26.06;45.32;97877.16;4487219;32;20084;-78
2022/09/10 09:51:10;;;;;;;3.92;1.60;;;;;;;24.86;48.93;97871.50;4488161;31;20100;-78
2022/09/10 09:53:37;;;;;;;5.07;1.90;;;;;;;25.85;46.06;97868.91;4487920;31;20149;-78
2022/09/10 09:56:11;;;;;;;10.18;2.00;;;;;;;27.20;42.53;97863.56;4488121;31;20092;-78
2022/09/10 09:58:39;;;;;;;4.57;1.98;;;;;;;27.31;43.09;97865.78;4487042;32;20084;-78
2022/09/10 10:01:11;;;;;;;2.70;1.35;;;;;;;27.17;42.42;97858.63;4487638;31;20104;-78
2022/09/10 10:03:57;;;;;;;2.42;1.20;;;;;;;26.93;43.89;97869.31;4488014;31;20136;-78
2022/09/10 10:06:27;;;;;;;3.33;1.33;;;;;;;27.99;40.07;97863.34;4486884;32;20088;-78
2022/09/10 10:08:59;;;;;;;4.30;1.60;;;;;;;28.05;40.70;97860.75;4487785;31;20347;-78
2022/09/10 10:11:50;;;;;;;4.40;1.50;;;;;;;28.38;39.02;97868.41;4486872;31;20541;-78
2022/09/10 10:14:24;;;;;;;5.25;1.77;;;;;;;28.00;40.50;97860.50;4487731;31;20104;-78
2022/09/10 10:16:52;;;;;;;3.90;1.70;;;;;;;27.64;40.48;97860.25;4487789;31;20109;-78
2022/09/10 10:19:34;;;;;;;5.15;1.60;;;;;;;27.45;41.07;97860.75;4486923;32;20084;-78
2022/09/10 10:22:13;;;;;;;4.80;1.50;;;;;;;27.99;40.94;97863.34;4487577;31;20450;-78
2022/09/10 10:24:41;;;;;;;2.62;1.30;;;;;;;28.64;39.10;97862.66;4487867;31;20152;-78
2022/09/10 10:27:34;;;;;;;2.95;1.20;;;;;;;27.32;42.26;97867.44;4486737;32;20152;-78
2022/09/10 10:30:03;;;;;;;4.18;1.70;;;;;;;26.73;42.30;97859.13;4487604;31;20081;-78
2022/09/10 10:32:39;;;;;;;2.87;1.48;;;;;;;27.93;40.26;97873.63;4486744;32;20101;-78
2022/09/10 10:35:26;;;;;;;4.45;1.70;;;;;;;27.46;39.82;97865.06;4487840;31;20161;-78
2022/09/10 10:38:00;;;;;;;3.50;1.40;;;;;;;27.89;38.98;97866.22;4486771;32;20088;-78
2022/09/10 10:40:37;;;;;;;2.15;1.15;;;;;;;28.20;38.25;97861.63;4487873;31;20085;-78
2022/09/10 10:43:23;;;;;;;4.28;1.20;;;;;;;27.29;39.64;97862.50;4486313;32;20104;-78
2022/09/10 10:46:03;;;;;;;1.70;1.15;;;;;;;27.12;39.71;97858.31;4487681;31;20111;-78
2022/09/10 10:48:54;;;;;;;3.50;1.20;;;;;;;27.43;40.49;97857.44;4487921;31;20084;-78
2022/09/10 10:51:47;;;;;;;1.80;0.90;;;;;;;27.46;40.43;97852.63;4487434;31;20085;-78
2022/09/10 10:55:02;;;;;;;3.10;1.55;;;;;;;27.35;39.82;97853.03;4487755;32;20461;-78
2022/09/10 10:57:47;;;;;;;2.20;1.25;;;;;;;28.36;38.79;97854.53;4421850;32;20085;-78
2022/09/10 11:00:17;;;;;;;2.42;1.20;;;;;;;28.20;37.67;97850.19;4481016;32;20088;-78
2022/09/10 11:03:03;;;;;;;2.95;1.30;;;;;;;27.84;37.80;97850.84;4487614;31;20080;-78
2022/09/10 11:05:46;;;;;;;2.67;1.10;;;;;;;27.64;38.47;97847.81;4487253;31;20101;-78
2022/09/10 11:08:25;;;;;;;4.25;1.20;;;;;;;27.36;39.48;97863.47;4486537;32;20112;-78
2022/09/10 11:11:08;;;;;;;4.70;1.30;;;;;;;28.14;38.75;97857.03;4486235;31;20088;-78
2022/09/10 11:13:45;;;;;;;2.00;1.00;;;;;;;28.42;38.38;97869.72;4487642;31;20099;-78
2022/09/10 11:16:14;;;;;;;1.77;0.98;;;;;;;26.72;38.64;97867.25;4487662;31;20138;-79
2022/09/10 11:18:49;;;;;;;1.50;1.02;;;;;;;27.64;37.93;97874.34;4485973;32;20195;-78
2022/09/10 11:21:21;;;;;;;3.15;1.02;;;;;;;28.10;36.52;97858.41;4486459;31;20084;-78
2022/09/10 11:24:11;;;;;;;3.45;0.90;;;;;;;28.79;36.66;97871.44;4487509;31;20072;-78
2022/09/10 11:26:50;;;;;;;1.98;1.00;;;;;;;28.42;37.47;97846.66;4486073;32;20096;-78
2022/09/10 11:29:39;;;;;;;1.45;1.05;;;;;;;27.96;37.55;97857.34;4487632;31;20160;-78
2022/09/10 11:32:22;;;;;;;2.90;1.25;;;;;;;27.73;37.56;97845.97;4485956;32;20107;-78
2022/09/10 11:35:25;;;;;;;3.28;1.20;;;;;;;27.48;38.36;97849.81;4487277;31;20423;-78
2022/09/10 11:38:01;;;;;;;1.45;0.90;;;;;;;27.48;38.54;97857.75;4487477;31;20088;-78
2022/09/10 11:40:40;;;;;;;2.13;0.90;;;;;;;27.99;37.73;97850.06;4487159;31;20116;-78
2022/09/10 11:43:13;;;;;;;3.28;1.02;;;;;;;27.13;38.46;97854.69;4487379;31;20077;-78
2022/09/10 11:45:53;;;;;;;3.65;1.08;;;;;;;28.16;37.46;97859.50;4485777;32;20409;-78
2022/09/10 11:48:30;;;;;;;1.37;0.90;;;;;;;28.69;35.82;97852.31;4486329;32;20105;-78
2022/09/10 11:51:12;;;;;;;2.87;1.02;;;;;;;29.01;35.50;97859.06;4487413;31;20434;-78
2022/09/10 11:53:39;;;;;;;3.03;0.90;;;;;;;29.20;36.46;97853.16;4486872;31;20088;-78